createdAt,value
2023-01-20T00:00:02.206Z,22.1
2023-01-20T00:01:04.941Z,22.1
2023-01-20T00:02:07.157Z,22.2
2023-01-20T00:03:09.693Z,22
2023-01-20T00:04:12.415Z,22
2023-01-20T00:05:15.418Z,22.1
2023-01-20T00:06:18.292Z,22.1
2023-01-20T00:07:20.529Z,22
2023-01-20T00:08:22.753Z,22
2023-01-20T00:09:25.028Z,22
2023-01-20T00:10:27.569Z,21.9
2023-01-20T00:11:30.075Z,22.1
2023-01-20T00:12:32.606Z,22.1
2023-01-20T00:13:35.112Z,22.1
2023-01-20T00:14:37.802Z,22
2023-01-20T00:15:40.079Z,22.2
2023-01-20T00:16:42.569Z,22.1
2023-01-20T00:17:45.151Z,22.2
2023-01-20T00:18:47.726Z,22.1
2023-01-20T00:19:50.539Z,22.2
2023-01-20T00:20:53.091Z,22.2
2023-01-20T00:21:55.369Z,22.2
2023-01-20T00:22:57.911Z,22.2
2023-01-20T00:24:00.428Z,22.3
2023-01-20T00:25:02.708Z,22.4
2023-01-20T00:26:04.975Z,22.2
2023-01-20T00:27:07.236Z,22.2
2023-01-20T00:28:09.742Z,22.2
2023-01-20T00:29:11.708Z,22.2
2023-01-20T00:30:13.992Z,22.4
2023-01-20T00:31:16.597Z,22.3
2023-01-20T00:32:19.565Z,22.3
2023-01-20T00:33:21.822Z,22.2
2023-01-20T00:34:24.368Z,22.2
2023-01-20T00:35:26.930Z,22.2
2023-01-20T00:36:29.185Z,22.3
2023-01-20T00:37:31.798Z,22.2
2023-01-20T00:38:34.290Z,22.3
2023-01-20T00:39:36.495Z,22.3
2023-01-20T00:40:38.717Z,22.3
2023-01-20T00:41:40.697Z,22.4
2023-01-20T00:42:43.211Z,22.3
2023-01-20T00:43:45.173Z,22.4
2023-01-20T00:44:47.495Z,22.3
2023-01-20T00:45:49.712Z,22.2
2023-01-20T00:46:51.942Z,22.5
2023-01-20T00:47:54.559Z,22.3
2023-01-20T00:48:57.082Z,22.3
2023-01-20T00:49:59.355Z,22.4
2023-01-20T00:51:01.738Z,22.4
2023-01-20T00:52:03.969Z,22.3
2023-01-20T00:53:06.469Z,22.3
2023-01-20T00:54:08.978Z,22.3
2023-01-20T00:55:11.505Z,22.3
2023-01-20T00:56:16.203Z,22.4
2023-01-20T00:57:18.446Z,22.3
2023-01-20T00:58:20.942Z,22.3
2023-01-20T00:59:23.450Z,22.5
2023-01-20T01:00:26.010Z,22.3
2023-01-20T01:01:28.102Z,22.4
2023-01-20T01:02:30.920Z,22.5
2023-01-20T01:03:33.789Z,22.7
2023-01-20T01:04:36.309Z,22.4
2023-01-20T01:05:38.849Z,22.5
2023-01-20T01:06:41.428Z,22.5
2023-01-20T01:07:43.655Z,22.4
2023-01-20T01:08:46.170Z,22.5
2023-01-20T01:09:48.680Z,22.5
2023-01-20T01:10:50.899Z,22.5
2023-01-20T01:11:53.094Z,22.6
2023-01-20T01:12:55.635Z,22.6
2023-01-20T01:13:58.164Z,22.5
2023-01-20T01:15:00.654Z,22.4
2023-01-20T01:16:02.960Z,22.6
2023-01-20T01:17:05.381Z,22.5
2023-01-20T01:18:07.625Z,22.5
2023-01-20T01:19:09.857Z,22.6
2023-01-20T01:20:11.816Z,22.4
2023-01-20T01:21:14.391Z,22.4
2023-01-20T01:22:16.721Z,22.5
2023-01-20T01:23:19.205Z,22.5
2023-01-20T01:24:21.722Z,22.4
2023-01-20T01:25:23.946Z,22.5
2023-01-20T01:26:25.879Z,22.6
2023-01-20T01:27:27.265Z,22.4
2023-01-20T01:28:29.560Z,22.5
2023-01-20T01:29:31.783Z,22.5
2023-01-20T01:30:34.042Z,22.5
2023-01-20T01:31:36.530Z,22.5
2023-01-20T01:32:39.105Z,22.5
2023-01-20T01:33:41.628Z,22.5
2023-01-20T01:34:43.853Z,22.7
2023-01-20T01:35:46.377Z,22.5
2023-01-20T01:36:48.901Z,22.6
2023-01-20T01:37:51.468Z,22.6
2023-01-20T01:38:58.168Z,22.6
2023-01-20T01:39:58.682Z,22.5
2023-01-20T01:41:01.225Z,22.6
2023-01-20T01:42:03.777Z,22.6
2023-01-20T01:43:05.747Z,22.5
2023-01-20T01:44:08.276Z,22.5
2023-01-20T01:45:11.011Z,22.5
2023-01-20T01:46:16.062Z,22.4
2023-01-20T01:47:18.573Z,22.6
2023-01-20T01:48:20.819Z,22.6
2023-01-20T01:49:23.026Z,22.6
2023-01-20T01:50:25.266Z,22.5
2023-01-20T01:51:27.754Z,22.5
2023-01-20T01:52:30.315Z,22.6
2023-01-20T01:53:32.905Z,22.6
2023-01-20T01:54:34.846Z,22.6
2023-01-20T01:55:37.340Z,22.5
2023-01-20T01:56:39.847Z,22.6
2023-01-20T01:57:42.354Z,22.5
2023-01-20T01:58:44.910Z,22.6
2023-01-20T01:59:47.157Z,22.7
2023-01-20T02:00:49.696Z,22.7
2023-01-20T02:01:52.267Z,22.7
2023-01-20T02:02:55.516Z,22.6
2023-01-20T02:03:57.808Z,22.6
2023-01-20T02:05:00.053Z,22.5
2023-01-20T02:06:02.609Z,22.5
2023-01-20T02:07:04.820Z,22.5
2023-01-20T02:08:06.810Z,22.6
2023-01-20T02:09:09.419Z,22.4
2023-01-20T02:10:11.905Z,22.5
2023-01-20T02:11:14.416Z,22.6
2023-01-20T02:12:16.924Z,22.4
2023-01-20T02:13:19.175Z,22.6
2023-01-20T02:14:21.677Z,22.6
2023-01-20T02:15:23.942Z,22.4
2023-01-20T02:16:26.452Z,22.6
2023-01-20T02:17:29.235Z,22.5
2023-01-20T02:18:31.492Z,22.7
2023-01-20T02:19:34.002Z,22.7
2023-01-20T02:20:36.529Z,22.7
2023-01-20T02:21:38.776Z,22.7
2023-01-20T02:22:40.988Z,22.7
2023-01-20T02:23:43.547Z,22.6
2023-01-20T02:24:46.165Z,22.8
2023-01-20T02:25:48.646Z,22.5
2023-01-20T02:26:50.889Z,22.5
2023-01-20T02:27:53.384Z,22.4
2023-01-20T02:28:55.619Z,22.7
2023-01-20T02:29:57.878Z,22.7
2023-01-20T02:31:00.148Z,22.6
2023-01-20T02:32:02.665Z,22.6
2023-01-20T02:33:05.166Z,22.6
2023-01-20T02:34:07.668Z,22.6
2023-01-20T02:35:10.167Z,22.6
2023-01-20T02:36:13.462Z,22.6
2023-01-20T02:37:15.473Z,22.5
2023-01-20T02:38:17.428Z,22.6
2023-01-20T02:39:26.824Z,22.6
2023-01-20T02:40:24.662Z,22.7
2023-01-20T02:41:27.229Z,22.6
2023-01-20T02:42:29.778Z,22.7
2023-01-20T02:43:32.320Z,22.6
2023-01-20T02:44:34.848Z,22.7
2023-01-20T02:45:37.371Z,22.7
2023-01-20T02:46:40.077Z,22.7
2023-01-20T02:47:42.315Z,22.6
2023-01-20T02:48:47.294Z,22.7
2023-01-20T02:49:49.794Z,22.7
2023-01-20T02:50:51.893Z,22.7
2023-01-20T02:51:54.438Z,22.6
2023-01-20T02:52:56.979Z,22.5
2023-01-20T02:53:59.258Z,22.7
2023-01-20T02:55:01.485Z,22.6
2023-01-20T02:56:03.735Z,22.7
2023-01-20T02:57:06.331Z,22.6
2023-01-20T02:58:08.568Z,22.6
2023-01-20T02:59:10.815Z,22.5
2023-01-20T03:00:13.321Z,22.6
2023-01-20T03:01:15.425Z,22.5
2023-01-20T03:02:18.482Z,22.6
2023-01-20T03:03:20.740Z,22.6
2023-01-20T03:04:23.288Z,22.7
2023-01-20T03:05:25.804Z,22.7
2023-01-20T03:06:28.515Z,22.5
2023-01-20T03:07:30.736Z,22.8
2023-01-20T03:08:33.231Z,22.7
2023-01-20T03:09:35.719Z,22.7
2023-01-20T03:10:38.136Z,22.6
2023-01-20T03:11:40.332Z,22.6
2023-01-20T03:12:42.921Z,22.7
2023-01-20T03:13:45.424Z,22.6
2023-01-20T03:14:47.946Z,22.7
2023-01-20T03:15:50.463Z,22.8
2023-01-20T03:16:53.034Z,22.6
2023-01-20T03:17:55.613Z,22.6
2023-01-20T03:18:58.110Z,22.6
2023-01-20T03:20:00.651Z,22.6
2023-01-20T03:21:02.954Z,22.7
2023-01-20T03:22:05.235Z,22.7
2023-01-20T03:23:07.479Z,22.7
2023-01-20T03:24:09.734Z,22.6
2023-01-20T03:25:12.097Z,22.7
2023-01-20T03:26:16.253Z,22.8
2023-01-20T03:27:18.770Z,22.5
2023-01-20T03:28:21.348Z,22.8
2023-01-20T03:29:23.863Z,22.7
2023-01-20T03:30:26.372Z,22.6
2023-01-20T03:31:29.207Z,22.7
2023-01-20T03:32:32.685Z,22.7
2023-01-20T03:33:34.928Z,22.7
2023-01-20T03:34:37.429Z,22.8
2023-01-20T03:35:39.923Z,22.6
2023-01-20T03:36:42.410Z,22.8
2023-01-20T03:37:44.664Z,22.8
2023-01-20T03:38:47.167Z,22.7
2023-01-20T03:39:49.694Z,22.6
2023-01-20T03:40:52.226Z,22.7
2023-01-20T03:41:54.778Z,22.7
2023-01-20T03:42:57.260Z,22.7
2023-01-20T03:43:59.830Z,22.6
2023-01-20T03:45:01.844Z,22.7
2023-01-20T03:46:04.386Z,22.7
2023-01-20T03:47:07.287Z,22.7
2023-01-20T03:48:09.850Z,22.7
2023-01-20T03:49:12.478Z,22.7
2023-01-20T03:50:14.987Z,22.8
2023-01-20T03:51:17.284Z,22.7
2023-01-20T03:52:19.901Z,22.7
2023-01-20T03:53:21.931Z,22.6
2023-01-20T03:54:24.462Z,22.7
2023-01-20T03:55:27.023Z,22.7
2023-01-20T03:56:29.526Z,22.7
2023-01-20T03:57:31.763Z,22.7
2023-01-20T03:58:33.741Z,22.7
2023-01-20T03:59:36.314Z,22.7
2023-01-20T04:00:38.550Z,22.6
2023-01-20T04:01:41.176Z,22.8
2023-01-20T04:02:44.382Z,22.7
2023-01-20T04:03:46.901Z,22.7
2023-01-20T04:04:49.037Z,22.7
2023-01-20T04:05:51.621Z,22.8
2023-01-20T04:06:54.118Z,22.8
2023-01-20T04:07:56.396Z,22.7
2023-01-20T04:08:58.902Z,22.7
2023-01-20T04:10:01.182Z,22.6
2023-01-20T04:11:03.196Z,22.6
2023-01-20T04:12:05.472Z,22.8
2023-01-20T04:13:08.003Z,22.7
2023-01-20T04:14:10.532Z,22.6
2023-01-20T04:15:13.484Z,22.6
2023-01-20T04:16:17.841Z,22.6
2023-01-20T04:17:20.363Z,22.5
2023-01-20T04:18:22.616Z,22.6
2023-01-20T04:19:25.123Z,22.5
2023-01-20T04:20:27.682Z,22.6
2023-01-20T04:21:29.948Z,22.5
2023-01-20T04:22:32.504Z,22.6
2023-01-20T04:23:35.008Z,22.6
2023-01-20T04:24:37.558Z,22.6
2023-01-20T04:25:40.073Z,22.5
2023-01-20T04:26:42.436Z,22.4
2023-01-20T04:27:44.978Z,22.3
2023-01-20T04:28:47.507Z,22.4
2023-01-20T04:29:50.008Z,22.5
2023-01-20T04:30:52.731Z,22.5
2023-01-20T04:31:55.920Z,22.4
2023-01-20T04:32:58.752Z,22.4
2023-01-20T04:34:01.268Z,22.5
2023-01-20T04:35:03.514Z,22.4
2023-01-20T04:36:06.072Z,22.4
2023-01-20T04:37:08.663Z,22.4
2023-01-20T04:38:11.325Z,22.5
2023-01-20T04:39:13.799Z,22.5
2023-01-20T04:40:16.359Z,22.4
2023-01-20T04:41:18.902Z,22.4
2023-01-20T04:42:21.426Z,22.3
2023-01-20T04:43:23.997Z,22.4
2023-01-20T04:44:26.528Z,22.4
2023-01-20T04:45:28.773Z,22.3
2023-01-20T04:46:31.456Z,22.4
2023-01-20T04:47:39.298Z,22.4
2023-01-20T04:48:41.569Z,22.4
2023-01-20T04:49:44.117Z,22.3
2023-01-20T04:50:46.648Z,22.3
2023-01-20T04:51:49.224Z,22.4
2023-01-20T04:52:51.728Z,22.3
2023-01-20T04:53:54.223Z,22.4
2023-01-20T04:54:56.741Z,22.2
2023-01-20T04:55:58.991Z,22.4
2023-01-20T04:57:01.555Z,22.3
2023-01-20T04:58:04.065Z,22.3
2023-01-20T04:59:06.288Z,22.3
2023-01-20T05:00:08.589Z,22.4
2023-01-20T05:01:11.158Z,22.3
2023-01-20T05:02:14.431Z,22.2
2023-01-20T05:03:17.617Z,22.2
2023-01-20T05:04:20.111Z,22.2
2023-01-20T05:05:22.611Z,22.3
2023-01-20T05:06:24.821Z,22.2
2023-01-20T05:07:27.095Z,22.2
2023-01-20T05:08:29.149Z,22.4
2023-01-20T05:09:31.721Z,22.3
2023-01-20T05:10:33.912Z,22.3
2023-01-20T05:11:36.432Z,22.4
2023-01-20T05:12:38.356Z,22.3
2023-01-20T05:13:40.883Z,22.3
2023-01-20T05:14:43.455Z,22.4
2023-01-20T05:15:45.987Z,22.4
2023-01-20T05:16:48.674Z,22.2
2023-01-20T05:17:51.243Z,22.3
2023-01-20T05:18:53.953Z,22.2
2023-01-20T05:19:55.610Z,22.3
2023-01-20T05:20:58.167Z,22.2
2023-01-20T05:22:00.669Z,22.2
2023-01-20T05:23:03.194Z,22.2
2023-01-20T05:24:05.698Z,22.3
2023-01-20T05:25:08.245Z,22.3
2023-01-20T05:26:10.459Z,22.2
2023-01-20T05:27:12.679Z,22.3
2023-01-20T05:28:15.188Z,22.3
2023-01-20T05:29:17.921Z,22.3
2023-01-20T05:30:20.158Z,22.2
2023-01-20T05:31:23.178Z,22.1
2023-01-20T05:32:25.832Z,22.2
2023-01-20T05:33:28.403Z,22.4
2023-01-20T05:34:30.636Z,22.3
2023-01-20T05:35:32.828Z,22.2
2023-01-20T05:36:35.043Z,22.2
2023-01-20T05:37:37.351Z,22.3
2023-01-20T05:38:39.868Z,22.2
2023-01-20T05:39:42.250Z,22.2
2023-01-20T05:40:44.778Z,22.3
2023-01-20T05:41:46.797Z,22.2
2023-01-20T05:42:49.103Z,22.2
2023-01-20T05:43:51.352Z,22.1
2023-01-20T05:44:53.607Z,22.2
2023-01-20T05:45:55.831Z,22.2
2023-01-20T05:46:58.386Z,22.3
2023-01-20T05:48:00.901Z,22.2
2023-01-20T05:49:03.463Z,22.2
2023-01-20T05:50:06.108Z,22.2
2023-01-20T05:51:08.618Z,22.2
2023-01-20T05:52:11.143Z,22.2
2023-01-20T05:53:13.651Z,22
2023-01-20T05:54:15.375Z,22.1
2023-01-20T05:55:17.893Z,22.2
2023-01-20T05:56:20.409Z,22.2
2023-01-20T05:57:22.615Z,22.1
2023-01-20T05:58:25.114Z,22.2
2023-01-20T05:59:27.318Z,22.2
2023-01-20T06:00:29.825Z,22.1
2023-01-20T06:01:32.123Z,22.1
2023-01-20T06:02:34.919Z,22.2
2023-01-20T06:03:37.520Z,22.1
2023-01-20T06:04:40.452Z,22.1
2023-01-20T06:05:42.947Z,22.2
2023-01-20T06:06:44.637Z,22.2
2023-01-20T06:07:46.849Z,22.1
2023-01-20T06:08:49.078Z,22.1
2023-01-20T06:09:51.762Z,22.1
2023-01-20T06:10:54.364Z,22
2023-01-20T06:11:56.868Z,22.2
2023-01-20T06:12:59.124Z,22.1
2023-01-20T06:14:01.658Z,22.2
2023-01-20T06:15:03.319Z,22.2
2023-01-20T06:16:07.316Z,22.1
2023-01-20T06:17:10.273Z,22.2
2023-01-20T06:18:12.805Z,22.1
2023-01-20T06:19:14.749Z,22.1
2023-01-20T06:20:17.386Z,22.2
2023-01-20T06:21:19.899Z,22.1
2023-01-20T06:22:22.125Z,22
2023-01-20T06:23:24.616Z,22.2
2023-01-20T06:24:27.144Z,22.1
2023-01-20T06:25:29.663Z,22.1
2023-01-20T06:27:49.313Z,22.2
2023-01-20T06:28:51.314Z,22.2
2023-01-20T06:29:53.610Z,22.3
2023-01-20T06:30:55.891Z,22.2
2023-01-20T06:31:58.455Z,22.2
2023-01-20T06:33:01.705Z,22.2
2023-01-20T06:34:04.222Z,22.1
2023-01-20T06:35:06.476Z,22
2023-01-20T06:36:12.495Z,22.1
2023-01-20T06:37:15.102Z,22.1
2023-01-20T06:38:17.333Z,22.1
2023-01-20T06:39:19.868Z,22.1
2023-01-20T06:40:21.826Z,22
2023-01-20T06:41:24.118Z,22.1
2023-01-20T06:42:26.634Z,22
2023-01-20T06:43:29.135Z,22.1
2023-01-20T06:44:31.774Z,22.1
2023-01-20T06:45:34.277Z,22.1
2023-01-20T06:46:36.808Z,22.2
2023-01-20T06:47:39.284Z,22.1
2023-01-20T06:48:41.821Z,22
2023-01-20T06:49:44.399Z,22.2
2023-01-20T06:50:46.900Z,22.2
2023-01-20T06:51:49.207Z,22.2
2023-01-20T06:52:51.733Z,22.1
2023-01-20T06:53:54.266Z,22.2
2023-01-20T06:54:56.813Z,22
2023-01-20T06:55:59.063Z,22.3
2023-01-20T06:57:01.069Z,22.1
2023-01-20T06:58:03.285Z,22.2
2023-01-20T06:59:05.568Z,22.1
2023-01-20T07:00:08.104Z,22.1
2023-01-20T07:01:10.499Z,22
2023-01-20T07:02:13.899Z,22.1
2023-01-20T07:03:16.598Z,22.1
2023-01-20T07:04:18.541Z,22
2023-01-20T07:05:21.137Z,21.9
2023-01-20T07:06:22.815Z,22.1
2023-01-20T07:07:25.173Z,22
2023-01-20T07:08:27.712Z,22.1
2023-01-20T07:09:29.701Z,22
2023-01-20T07:10:32.215Z,22
2023-01-20T07:11:34.460Z,22.1
2023-01-20T07:12:36.744Z,22
2023-01-20T07:13:39.286Z,22
2023-01-20T07:14:41.622Z,22.2
2023-01-20T07:15:43.593Z,22
2023-01-20T07:16:45.885Z,22.1
2023-01-20T07:17:48.266Z,22
2023-01-20T07:18:50.503Z,21.9
2023-01-20T07:19:53.098Z,22.1
2023-01-20T07:20:55.650Z,22
2023-01-20T07:21:58.225Z,22.1
2023-01-20T07:23:00.520Z,22.1
2023-01-20T07:24:02.530Z,21.9
2023-01-20T07:25:04.781Z,22.1
2023-01-20T07:26:07.023Z,21.9
2023-01-20T07:27:09.553Z,22
2023-01-20T07:28:12.092Z,22
2023-01-20T07:29:15.105Z,22.1
2023-01-20T07:30:20.008Z,22
2023-01-20T07:31:22.464Z,22.1
2023-01-20T07:32:24.792Z,22.1
2023-01-20T07:33:27.293Z,21.9
2023-01-20T07:34:29.823Z,22
2023-01-20T07:35:32.088Z,21.9
2023-01-20T07:36:34.726Z,21.9
2023-01-20T07:37:37.255Z,22
2023-01-20T07:38:39.847Z,22
2023-01-20T07:39:42.422Z,22
2023-01-20T07:40:44.406Z,22
2023-01-20T07:41:46.210Z,22
2023-01-20T07:42:48.736Z,22.1
2023-01-20T07:43:51.324Z,22.1
2023-01-20T07:44:53.686Z,22
2023-01-20T07:45:56.034Z,22
2023-01-20T07:46:58.535Z,22.2
2023-01-20T07:48:00.813Z,22
2023-01-20T07:49:03.052Z,22
2023-01-20T07:50:05.616Z,22
2023-01-20T07:51:07.865Z,22
2023-01-20T07:52:10.495Z,22.1
2023-01-20T07:53:12.456Z,22
2023-01-20T07:54:15.055Z,22
2023-01-20T07:55:17.486Z,22.1
2023-01-20T07:56:19.806Z,22
2023-01-20T07:57:22.499Z,21.9
2023-01-20T07:58:25.073Z,21.9
2023-01-20T07:59:27.612Z,22.1
2023-01-20T08:00:30.173Z,22.1
2023-01-20T08:01:32.897Z,22.1
2023-01-20T08:02:35.745Z,22
2023-01-20T08:03:38.268Z,22.1
2023-01-20T08:04:40.324Z,21.9
2023-01-20T08:05:42.859Z,22.1
2023-01-20T08:06:45.126Z,22
2023-01-20T08:07:47.872Z,22
2023-01-20T08:08:50.098Z,22.1
2023-01-20T08:09:52.696Z,22
2023-01-20T08:10:54.462Z,22
2023-01-20T08:11:57.126Z,22.1
2023-01-20T08:12:59.401Z,21.9
2023-01-20T08:14:01.430Z,22.1
2023-01-20T08:15:03.681Z,22
2023-01-20T08:16:06.203Z,22
2023-01-20T08:17:08.730Z,22
2023-01-20T08:18:10.735Z,22.1
2023-01-20T08:19:13.268Z,21.9
2023-01-20T08:20:15.515Z,22
2023-01-20T08:21:21.266Z,22.1
2023-01-20T08:22:23.549Z,22
2023-01-20T08:23:25.840Z,22.1
2023-01-20T08:24:28.348Z,21.9
2023-01-20T08:25:30.980Z,22.1
2023-01-20T08:26:33.545Z,22
2023-01-20T08:27:35.825Z,22
2023-01-20T08:28:38.409Z,22.1
2023-01-20T08:29:40.680Z,22.2
2023-01-20T08:30:43.012Z,22
2023-01-20T08:31:45.609Z,22
2023-01-20T08:32:48.554Z,22.1
2023-01-20T08:33:50.766Z,22.1
2023-01-20T08:34:53.014Z,22
2023-01-20T08:35:55.274Z,21.9
2023-01-20T08:36:57.262Z,22.1
2023-01-20T08:37:59.795Z,22.1
2023-01-20T08:39:02.350Z,22
2023-01-20T08:40:04.988Z,21.9
2023-01-20T08:41:07.419Z,22
2023-01-20T08:42:09.391Z,22
2023-01-20T08:43:11.678Z,22
2023-01-20T08:44:14.218Z,22.1
2023-01-20T08:45:16.950Z,22
2023-01-20T08:46:19.861Z,22
2023-01-20T08:47:22.896Z,21.9
2023-01-20T08:48:25.461Z,21.9
2023-01-20T08:49:28.008Z,22
2023-01-20T08:50:30.246Z,21.9
2023-01-20T08:51:33.052Z,22.2
2023-01-20T08:52:35.769Z,22.2
2023-01-20T08:53:38.015Z,22.1
2023-01-20T08:54:39.984Z,22.1
2023-01-20T08:55:42.544Z,22
2023-01-20T08:56:44.863Z,22
2023-01-20T08:57:47.410Z,22
2023-01-20T08:58:49.881Z,22
2023-01-20T08:59:52.377Z,22
2023-01-20T09:00:54.396Z,22.1
2023-01-20T09:01:57.321Z,22.1
2023-01-20T09:02:59.577Z,22
2023-01-20T09:04:06.416Z,22
2023-01-20T09:05:07.086Z,22.1
2023-01-20T09:06:09.619Z,22
2023-01-20T09:07:11.860Z,22
2023-01-20T09:08:15.195Z,21.9
2023-01-20T09:09:17.767Z,22
2023-01-20T09:10:20.483Z,21.9
2023-01-20T09:11:23.321Z,22.1
2023-01-20T09:12:26.196Z,22.1
2023-01-20T09:13:28.740Z,22
2023-01-20T09:14:31.007Z,22
2023-01-20T09:15:33.583Z,22
2023-01-20T09:16:36.125Z,22
2023-01-20T09:17:38.364Z,22
2023-01-20T09:18:40.878Z,21.9
2023-01-20T09:19:42.575Z,21.8
2023-01-20T09:20:45.134Z,21.9
2023-01-20T09:21:47.684Z,22.1
2023-01-20T09:22:49.938Z,21.9
2023-01-20T09:23:52.210Z,21.9
2023-01-20T09:24:54.491Z,22
2023-01-20T09:25:57.028Z,22
2023-01-20T09:26:59.565Z,22.1
2023-01-20T09:28:02.279Z,22
2023-01-20T09:29:07.264Z,21.9
2023-01-20T09:30:09.239Z,22
2023-01-20T09:31:11.878Z,22
2023-01-20T09:32:14.647Z,22
2023-01-20T09:33:17.212Z,22
2023-01-20T09:34:19.998Z,22
2023-01-20T09:35:22.162Z,21.9
2023-01-20T09:36:24.708Z,21.9
2023-01-20T09:37:29.117Z,22
2023-01-20T09:38:31.350Z,21.9
2023-01-20T09:39:33.875Z,22
2023-01-20T09:40:36.390Z,21.9
2023-01-20T09:41:40.847Z,21.9
2023-01-20T09:42:43.995Z,22
2023-01-20T09:43:46.358Z,21.9
2023-01-20T09:44:48.959Z,22
2023-01-20T09:45:51.236Z,22.1
2023-01-20T09:46:53.755Z,22
2023-01-20T09:47:55.999Z,22
2023-01-20T09:48:58.350Z,22
2023-01-20T09:50:00.919Z,22.1
2023-01-20T09:51:03.475Z,22.1
2023-01-20T09:52:05.748Z,22
2023-01-20T09:53:08.010Z,22
2023-01-20T09:54:10.528Z,21.9
2023-01-20T09:55:12.469Z,21.9
2023-01-20T09:56:14.970Z,22
2023-01-20T09:57:17.650Z,22.1
2023-01-20T09:58:20.172Z,21.8
2023-01-20T09:59:22.584Z,21.9
2023-01-20T10:00:25.165Z,22
2023-01-20T10:01:27.454Z,21.9
2023-01-20T10:02:30.188Z,22
2023-01-20T10:03:32.422Z,21.9
2023-01-20T10:04:34.959Z,22
2023-01-20T10:05:37.611Z,22
2023-01-20T10:06:40.465Z,22
2023-01-20T10:07:43.001Z,22
2023-01-20T10:08:55.899Z,22.1
2023-01-20T10:09:50.480Z,22
2023-01-20T10:10:52.984Z,22
2023-01-20T10:11:55.522Z,21.9
2023-01-20T10:12:58.061Z,21.9
2023-01-20T10:14:00.025Z,21.9
2023-01-20T10:15:02.702Z,22
2023-01-20T10:16:04.480Z,22
2023-01-20T10:17:07.213Z,21.9
2023-01-20T10:18:09.498Z,21.9
2023-01-20T10:19:12.307Z,22
2023-01-20T10:20:15.694Z,21.9
2023-01-20T10:21:18.816Z,22
2023-01-20T10:22:21.096Z,21.9
2023-01-20T10:23:23.644Z,21.9
2023-01-20T10:24:25.652Z,21.8
2023-01-20T10:25:28.163Z,21.9
2023-01-20T10:26:30.145Z,22
2023-01-20T10:27:32.795Z,22.1
2023-01-20T10:28:35.111Z,22.1
2023-01-20T10:29:37.649Z,21.9
2023-01-20T10:30:40.503Z,21.9
2023-01-20T10:31:43.122Z,21.9
2023-01-20T10:32:45.887Z,21.9
2023-01-20T10:33:48.134Z,22
2023-01-20T10:34:50.648Z,21.8
2023-01-20T10:35:52.614Z,21.8
2023-01-20T10:36:54.849Z,21.9
2023-01-20T10:37:57.386Z,21.8
2023-01-20T10:38:59.727Z,21.8
2023-01-20T10:40:02.243Z,22
2023-01-20T10:41:04.787Z,21.8
2023-01-20T10:42:07.043Z,21.9
2023-01-20T10:43:09.612Z,21.9
2023-01-20T10:44:12.197Z,22
2023-01-20T10:45:15.065Z,22
2023-01-20T10:46:19.141Z,21.9
2023-01-20T10:47:21.529Z,21.7
2023-01-20T10:48:23.529Z,21.9
2023-01-20T10:49:26.046Z,21.8
2023-01-20T10:50:28.084Z,22
2023-01-20T10:51:30.370Z,21.9
2023-01-20T10:52:32.918Z,21.8
2023-01-20T10:53:35.555Z,22
2023-01-20T10:54:37.521Z,21.8
2023-01-20T10:55:39.471Z,21.9
2023-01-20T10:56:41.730Z,21.8
2023-01-20T10:57:44.303Z,21.8
2023-01-20T10:58:46.538Z,21.8
2023-01-20T10:59:48.519Z,21.9
2023-01-20T11:00:50.175Z,22
2023-01-20T11:01:59.339Z,21.9
2023-01-20T11:02:59.014Z,21.9
2023-01-20T11:04:01.837Z,21.9
2023-01-20T11:05:03.795Z,21.9
2023-01-20T11:06:06.314Z,22
2023-01-20T11:07:08.638Z,22
2023-01-20T11:08:10.893Z,21.8
2023-01-20T11:09:13.101Z,21.9
2023-01-20T11:10:15.811Z,21.9
2023-01-20T11:11:19.209Z,21.9
2023-01-20T11:12:21.787Z,22.1
2023-01-20T11:13:24.331Z,21.9
2023-01-20T11:14:26.831Z,21.9
2023-01-20T11:15:29.394Z,21.9
2023-01-20T11:16:31.495Z,21.8
2023-01-20T11:17:34.362Z,22
2023-01-20T11:18:36.866Z,21.9
2023-01-20T11:19:39.405Z,22
2023-01-20T11:20:41.709Z,21.9
2023-01-20T11:21:44.220Z,21.7
2023-01-20T11:22:46.494Z,21.8
2023-01-20T11:23:49.022Z,22
2023-01-20T11:24:51.348Z,21.7
2023-01-20T11:25:53.842Z,21.8
2023-01-20T11:26:55.818Z,21.9
2023-01-20T11:27:57.754Z,21.9
2023-01-20T11:29:00.299Z,22.1
2023-01-20T11:30:02.561Z,22
2023-01-20T11:31:04.939Z,22
2023-01-20T11:32:08.054Z,21.9
2023-01-20T11:33:10.681Z,21.8
2023-01-20T11:34:13.071Z,21.9
2023-01-20T11:35:15.842Z,22
2023-01-20T11:36:18.660Z,22
2023-01-20T11:37:21.164Z,21.9
2023-01-20T11:38:23.465Z,21.9
2023-01-20T11:39:25.970Z,21.9
2023-01-20T11:40:28.229Z,21.9
2023-01-20T11:41:30.471Z,21.9
2023-01-20T11:42:33.016Z,21.8
2023-01-20T11:43:38.497Z,21.8
2023-01-20T11:44:41.009Z,21.8
2023-01-20T11:45:43.223Z,22
2023-01-20T11:46:45.635Z,22
2023-01-20T11:47:48.132Z,21.9
2023-01-20T11:48:50.509Z,21.9
2023-01-20T11:49:52.779Z,21.9
2023-01-20T11:50:55.016Z,21.8
2023-01-20T11:51:57.649Z,21.9
2023-01-20T11:53:00.256Z,21.8
2023-01-20T11:54:02.813Z,21.9
2023-01-20T11:55:05.314Z,21.9
2023-01-20T11:56:07.540Z,21.9
2023-01-20T11:57:10.061Z,22
2023-01-20T11:58:12.323Z,22
2023-01-20T11:59:14.273Z,21.9
2023-01-20T12:00:17.211Z,21.9
2023-01-20T12:01:19.816Z,21.9
2023-01-20T12:02:22.107Z,21.9
2023-01-20T12:03:24.661Z,21.9
2023-01-20T12:04:27.370Z,21.9
2023-01-20T12:05:29.892Z,21.9
2023-01-20T12:06:32.398Z,21.9
2023-01-20T12:07:34.362Z,21.8
2023-01-20T12:08:36.870Z,21.9
2023-01-20T12:09:39.414Z,21.9
2023-01-20T12:10:41.907Z,21.8
2023-01-20T12:11:44.424Z,21.9
2023-01-20T12:12:46.652Z,22
2023-01-20T12:13:49.155Z,22
2023-01-20T12:14:51.392Z,22.1
2023-01-20T12:15:53.622Z,22.1
2023-01-20T12:16:56.280Z,21.9
2023-01-20T12:17:58.555Z,21.9
2023-01-20T12:19:02.714Z,21.8
2023-01-20T12:20:05.321Z,21.9
2023-01-20T12:21:07.561Z,21.8
2023-01-20T12:22:10.054Z,21.9
2023-01-20T12:23:12.558Z,21.9
2023-01-20T12:24:14.802Z,22.1
2023-01-20T12:25:17.399Z,22
2023-01-20T12:26:19.935Z,21.9
2023-01-20T12:27:22.207Z,21.9
2023-01-20T12:28:24.782Z,21.8
2023-01-20T12:29:26.726Z,21.8
2023-01-20T12:30:28.996Z,21.9
2023-01-20T12:31:31.316Z,22.1
2023-01-20T12:32:34.468Z,21.9
2023-01-20T12:33:36.767Z,21.8
2023-01-20T12:34:39.336Z,21.9
2023-01-20T12:35:41.655Z,22
2023-01-20T12:36:44.170Z,21.8
2023-01-20T12:37:46.434Z,22
2023-01-20T12:38:47.950Z,22
2023-01-20T12:39:50.487Z,21.9
2023-01-20T12:40:52.482Z,22
2023-01-20T12:41:54.988Z,22
2023-01-20T12:42:57.189Z,21.9
2023-01-20T12:43:59.443Z,21.9
2023-01-20T12:45:01.635Z,22
2023-01-20T12:46:04.003Z,21.9
2023-01-20T12:47:06.668Z,21.9
2023-01-20T12:48:09.191Z,21.8
2023-01-20T12:49:11.169Z,22
2023-01-20T12:50:13.594Z,21.8
2023-01-20T12:51:18.171Z,22.1
2023-01-20T12:52:20.252Z,22.1
2023-01-20T12:53:22.751Z,21.9
2023-01-20T12:54:28.588Z,22
2023-01-20T12:55:30.288Z,21.9
2023-01-20T12:56:32.840Z,21.9
2023-01-20T12:57:35.098Z,21.9
2023-01-20T12:58:37.379Z,22.1
2023-01-20T12:59:39.320Z,21.9
2023-01-20T13:00:41.843Z,22
2023-01-20T13:01:44.278Z,22
2023-01-20T13:02:46.826Z,21.9
2023-01-20T13:03:49.616Z,21.8
2023-01-20T13:04:52.190Z,22
2023-01-20T13:05:54.420Z,22
2023-01-20T13:06:57.001Z,22
2023-01-20T13:07:59.536Z,21.9
2023-01-20T13:09:02.061Z,21.8
2023-01-20T13:10:04.678Z,21.9
2023-01-20T13:11:07.279Z,21.9
2023-01-20T13:12:09.873Z,22
2023-01-20T13:13:12.131Z,22
2023-01-20T13:14:14.370Z,22.1
2023-01-20T13:15:16.367Z,22
2023-01-20T13:16:18.912Z,21.9
2023-01-20T13:17:21.309Z,21.9
2023-01-20T13:18:23.828Z,21.8
2023-01-20T13:19:26.165Z,21.9
2023-01-20T13:20:28.299Z,21.9
2023-01-20T13:21:30.604Z,21.9
2023-01-20T13:22:33.195Z,21.9
2023-01-20T13:23:35.707Z,22
2023-01-20T13:24:37.971Z,22
2023-01-20T13:25:40.496Z,22
2023-01-20T13:26:43.037Z,21.9
2023-01-20T13:27:45.272Z,22
2023-01-20T13:28:48.682Z,22
2023-01-20T13:29:51.263Z,22.1
2023-01-20T13:30:53.710Z,22.1
2023-01-20T13:31:56.877Z,21.9
2023-01-20T13:33:00.163Z,21.9
2023-01-20T13:34:02.413Z,21.9
2023-01-20T13:35:04.364Z,21.9
2023-01-20T13:36:06.705Z,22.1
2023-01-20T13:37:09.305Z,22
2023-01-20T13:38:11.944Z,21.9
2023-01-20T13:39:14.174Z,22.1
2023-01-20T13:40:16.730Z,22
2023-01-20T13:41:19.283Z,22
2023-01-20T13:42:20.994Z,22
2023-01-20T13:43:23.528Z,21.9
2023-01-20T13:44:25.834Z,21.9
2023-01-20T13:45:28.110Z,22.1
2023-01-20T13:46:30.661Z,22
2023-01-20T13:47:32.900Z,21.9
2023-01-20T13:48:35.414Z,22
2023-01-20T13:49:37.381Z,22
2023-01-20T13:50:39.617Z,21.9
2023-01-20T13:51:42.442Z,22
2023-01-20T13:52:44.974Z,21.9
2023-01-20T13:53:47.644Z,22.1
2023-01-20T13:54:50.183Z,22
2023-01-20T13:55:52.698Z,22
2023-01-20T13:56:54.969Z,22
2023-01-20T13:57:57.238Z,21.9
2023-01-20T13:58:59.530Z,21.9
2023-01-20T14:00:02.151Z,22.1
2023-01-20T14:01:03.908Z,22
2023-01-20T14:02:07.123Z,22
2023-01-20T14:03:09.580Z,22
2023-01-20T14:04:11.834Z,21.9